Time;durP1;ratioP1;P1;durP2;ratioP2;P2;SDS_P1;SDS_P2;PMS_P1;PMS_P2;Temp;Humidity;BMP_temperature;BMP_pressure;BME280_temperature;BME280_humidity;BME280_pressure;Samples;Min_cycle;Max_cycle;Signal;HPM_P1;HPM_P2
2024/02/10 00:01:24;;;;;;;10.50;4.50;;;;;;;8.62;100.00;69346.59;5069762;28;20048;-50
2024/02/10 00:03:56;;;;;;;9.38;3.83;;;;;;;8.59;100.00;69343.69;5070873;28;20506;-60
2024/02/10 00:06:25;;;;;;;10.02;4.22;;;;;;;8.66;100.00;69350.66;5069660;28;20051;-60
2024/02/10 00:08:53;;;;;;;8.82;3.85;;;;;;;8.70;100.00;69358.53;5069651;28;20044;-60
2024/02/10 00:11:21;;;;;;;10.25;4.15;;;;;;;8.67;100.00;69349.22;5069024;28;20060;-60
2024/02/10 00:13:51;;;;;;;9.30;4.05;;;;;;;8.65;100.00;69352.69;5069987;28;20476;-60
2024/02/10 00:16:20;;;;;;;9.95;4.40;;;;;;;8.62;100.00;69349.78;5073527;28;20072;-59
2024/02/10 00:18:48;;;;;;;10.85;4.45;;;;;;;8.73;100.00;69361.44;5075277;28;20056;-59
2024/02/10 00:21:20;;;;;;;9.57;4.03;;;;;;;8.66;100.00;69350.66;5072283;28;20402;-60
2024/02/10 00:23:48;;;;;;;10.88;4.00;;;;;;;8.74;100.00;69362.59;5073766;28;20127;-60
2024/02/10 00:26:21;;;;;;;9.68;3.83;;;;;;;8.70;100.00;69355.31;5072639;28;20059;-60
2024/02/10 00:28:50;;;;;;;11.45;4.30;;;;;;;8.74;100.00;69362.59;5074280;28;20123;-60
2024/02/10 00:31:20;;;;;;;12.60;4.90;;;;;;;8.71;100.00;69361.69;5073418;28;20094;-60
2024/02/10 00:33:50;;;;;;;9.50;4.15;;;;;;;8.70;100.00;69357.94;5076772;28;20522;-60
2024/02/10 00:36:19;;;;;;;9.60;4.30;;;;;;;8.73;100.00;69364.63;5076193;28;20052;-61
2024/02/10 00:38:47;;;;;;;12.35;4.68;;;;;;;8.73;100.00;69361.44;5076368;28;20040;-60
2024/02/10 00:41:16;;;;;;;9.38;3.88;;;;;;;8.72;100.00;69357.66;5076128;28;20113;-59
2024/02/10 00:43:45;;;;;;;12.13;4.95;;;;;;;8.65;100.00;69349.50;5074428;28;20048;-60
2024/02/10 00:46:15;;;;;;;9.70;4.20;;;;;;;8.63;100.00;69350.94;5073062;28;20047;-60
2024/02/10 00:48:47;;;;;;;10.27;4.25;;;;;;;8.66;100.00;69353.88;5073808;28;20049;-60
2024/02/10 00:51:16;;;;;;;12.98;4.65;;;;;;;8.61;100.00;69348.59;5073506;28;20048;-60
2024/02/10 00:53:47;;;;;;;9.30;4.35;;;;;;;8.62;100.00;69349.19;5074633;28;20068;-61
2024/02/10 00:56:15;;;;;;;9.10;4.40;;;;;;;8.61;100.00;69348.03;5071438;28;20041;-61
2024/02/10 00:58:44;;;;;;;8.27;4.15;;;;;;;8.61;100.00;69350.63;5072790;28;20044;-47
2024/02/10 01:01:20;;;;;;;10.93;4.15;;;;;;;8.70;100.00;69355.91;5072036;28;20048;-49
2024/02/10 01:03:50;;;;;;;9.02;4.13;;;;;;;8.67;100.00;69354.44;5074846;28;20166;-50
2024/02/10 01:06:20;;;;;;;9.32;4.43;;;;;;;8.62;100.00;69349.78;5074915;28;20522;-49
2024/02/10 01:08:50;;;;;;;11.15;4.18;;;;;;;8.66;100.00;69353.25;5075038;28;20040;-50
2024/02/10 01:11:20;;;;;;;10.00;4.32;;;;;;;8.61;100.00;69342.81;5073925;28;20052;-49
2024/02/10 01:13:49;;;;;;;9.70;4.30;;;;;;;8.63;100.00;69350.38;5074983;28;20562;-48
2024/02/10 01:16:20;;;;;;;8.43;4.28;;;;;;;8.63;100.00;69350.94;5072478;28;20462;-49
2024/02/10 01:18:54;;;;;;;8.70;3.78;;;;;;;8.65;100.00;69354.72;5071887;28;20125;-49
2024/02/10 01:21:23;;;;;;;8.80;4.30;;;;;;;8.59;100.00;69346.28;5072019;28;20504;-50
2024/02/10 01:23:54;;;;;;;9.35;4.57;;;;;;;8.59;100.00;69348.31;5072087;28;20049;-52
2024/02/10 01:26:22;;;;;;;9.13;4.10;;;;;;;8.58;100.00;69341.94;5070709;28;20675;-50
2024/02/10 01:28:50;;;;;;;8.60;4.43;;;;;;;8.60;100.00;69344.25;5074951;28;20064;-49
2024/02/10 01:31:18;;;;;;;8.55;4.00;;;;;;;8.59;100.00;69345.72;5075164;28;20387;-50
2024/02/10 01:33:48;;;;;;;7.35;3.60;;;;;;;8.59;100.00;69345.72;5075392;28;20131;-48
2024/02/10 01:36:19;;;;;;;8.95;4.13;;;;;;;8.61;100.00;69350.63;5073735;28;20405;-48
2024/02/10 01:38:49;;;;;;;8.45;3.75;;;;;;;8.65;100.00;69349.50;5074742;28;20051;-48
2024/02/10 01:41:17;;;;;;;7.40;3.63;;;;;;;8.63;100.00;69350.94;5070432;28;20070;-48
2024/02/10 01:43:45;;;;;;;8.57;3.55;;;;;;;8.66;100.00;69353.25;5072683;28;20124;-48
2024/02/10 01:46:21;;;;;;;7.10;3.25;;;;;;;8.67;100.00;69357.03;5074898;28;20045;-50
2024/02/10 01:48:50;;;;;;;7.65;3.38;;;;;;;8.67;100.00;69352.44;5074777;28;20045;-50
2024/02/10 01:51:22;;;;;;;9.15;3.53;;;;;;;8.67;100.00;69354.44;5074555;28;20495;-51
2024/02/10 01:53:52;;;;;;;8.25;3.08;;;;;;;8.63;100.00;69348.34;5073973;28;20075;-60
2024/02/10 01:56:21;;;;;;;9.52;3.53;;;;;;;8.65;100.00;69354.72;5071202;28;20408;-60
2024/02/10 01:58:49;;;;;;;8.68;3.70;;;;;;;8.66;100.00;69350.66;5071811;28;20401;-60
2024/02/10 02:01:20;;;;;;;9.20;3.63;;;;;;;8.66;100.00;69353.25;5070732;28;20098;-60
2024/02/10 02:03:49;;;;;;;6.40;3.53;;;;;;;8.65;100.00;69352.13;5072630;28;20043;-60
2024/02/10 02:06:18;;;;;;;9.88;3.65;;;;;;;8.63;100.00;69350.94;5072229;28;20449;-60
2024/02/10 02:08:50;;;;;;;8.75;3.55;;;;;;;8.66;100.00;69353.25;5074496;28;20043;-60
2024/02/10 02:11:19;;;;;;;8.30;3.50;;;;;;;8.69;100.00;69359.38;5072756;28;20044;-60
2024/02/10 02:13:49;;;;;;;7.53;3.15;;;;;;;8.71;100.00;69359.09;5072023;28;20122;-60
2024/02/10 02:16:17;;;;;;;7.68;3.45;;;;;;;8.67;100.00;69355.03;5072548;28;20082;-60
2024/02/10 02:18:46;;;;;;;10.77;3.60;;;;;;;8.67;100.00;69357.63;5074280;28;20120;-60
2024/02/10 02:21:15;;;;;;;10.35;3.60;;;;;;;8.63;100.00;69348.34;5073331;28;20345;-60
2024/02/10 02:23:45;;;;;;;7.63;3.42;;;;;;;8.67;100.00;69359.63;5072316;28;20127;-60
2024/02/10 02:26:13;;;;;;;5.90;3.33;;;;;;;8.63;100.00;69350.94;5069521;28;20048;-62
2024/02/10 02:28:42;;;;;;;8.20;3.47;;;;;;;8.61;100.00;69345.44;5071508;28;20358;-60
2024/02/10 02:31:10;;;;;;;9.98;3.88;;;;;;;8.57;100.00;69338.16;5073965;28;20132;-60
2024/02/10 02:33:39;;;;;;;6.35;3.47;;;;;;;8.57;100.00;69341.34;5073099;28;20131;-60
2024/02/10 02:36:07;;;;;;;6.57;3.67;;;;;;;8.57;100.00;69343.94;5070485;28;20041;-60
2024/02/10 02:38:38;;;;;;;8.80;3.40;;;;;;;8.56;100.00;69345.41;5071997;28;20040;-60
2024/02/10 02:41:10;;;;;;;7.00;3.20;;;;;;;8.50;100.00;69335.22;5073797;28;20040;-60
2024/02/10 02:43:38;;;;;;;8.15;4.03;;;;;;;8.52;100.00;69338.13;5071087;28;20114;-61
2024/02/10 02:46:07;;;;;;;6.85;3.22;;;;;;;8.55;100.00;69338.44;5071008;28;20045;-60
2024/02/10 02:48:42;;;;;;;8.07;3.60;;;;;;;8.51;100.00;69334.38;5070410;28;20041;-48
2024/02/10 02:51:10;;;;;;;7.43;3.50;;;;;;;8.49;100.00;69334.63;5070148;28;20044;-51
2024/02/10 02:53:38;;;;;;;10.25;3.42;;;;;;;8.48;100.00;69330.28;5072564;28;20040;-50
2024/02/10 02:56:15;;;;;;;8.05;3.40;;;;;;;8.46;100.00;69326.50;5068314;28;20102;-48
2024/02/10 02:58:43;;;;;;;7.90;3.88;;;;;;;8.48;100.00;69333.47;5070223;28;20049;-49
2024/02/10 03:01:12;;;;;;;7.57;3.33;;;;;;;8.50;100.00;69335.22;5071637;28;20468;-50
2024/02/10 03:03:40;;;;;;;6.75;3.63;;;;;;;8.60;100.00;69347.47;5070686;28;20058;-50
2024/02/10 03:06:08;;;;;;;9.50;3.30;;;;;;;8.69;100.00;69354.75;5070108;28;20047;-50
2024/02/10 03:08:37;;;;;;;8.55;3.15;;;;;;;8.70;100.00;69357.94;5070427;28;20048;-51
2024/02/10 03:11:06;;;;;;;8.00;3.92;;;;;;;8.61;100.00;69348.59;5072885;28;20040;-49
2024/02/10 03:13:35;;;;;;;7.07;3.70;;;;;;;8.60;100.00;69344.25;5105715;28;20135;-50
2024/02/10 03:16:04;;;;;;;9.10;3.83;;;;;;;8.58;100.00;69341.94;5071213;28;20384;-52
2024/02/10 03:18:33;;;;;;;7.60;3.60;;;;;;;8.68;100.00;69356.19;5069698;28;20124;-50
2024/02/10 03:21:01;;;;;;;8.52;3.70;;;;;;;8.61;100.00;69348.59;5069526;28;20071;-48
2024/02/10 03:23:29;;;;;;;7.57;3.88;;;;;;;8.58;100.00;69345.13;5071486;28;20044;-47
2024/02/10 03:26:03;;;;;;;9.73;3.75;;;;;;;8.55;100.00;69341.03;5067903;28;20067;-53
2024/02/10 03:28:33;;;;;;;7.93;3.75;;;;;;;8.55;100.00;69338.44;5069567;28;20040;-48
2024/02/10 03:31:04;;;;;;;7.90;3.90;;;;;;;8.59;100.00;69343.69;5069561;28;20041;-49
2024/02/10 03:33:34;;;;;;;9.30;4.20;;;;;;;8.66;100.00;69353.25;5069130;28;20383;-48
2024/02/10 03:36:05;;;;;;;8.25;4.07;;;;;;;8.68;100.00;69355.59;5102491;28;20052;-50
2024/02/10 03:38:33;;;;;;;7.13;3.92;;;;;;;8.77;100.00;69366.09;5072656;28;20119;-48
2024/02/10 03:41:01;;;;;;;7.85;3.72;;;;;;;8.71;100.00;69364.91;5072572;28;20056;-48
2024/02/10 03:43:29;;;;;;;8.68;4.35;;;;;;;8.72;100.00;69355.06;5070082;28;20833;-49
2024/02/10 03:45:58;;;;;;;10.73;4.05;;;;;;;8.68;100.00;69355.59;5069338;28;20512;-49
2024/02/10 03:48:27;;;;;;;8.98;4.45;;;;;;;8.66;100.00;69348.06;5072563;28;20056;-50
2024/02/10 03:50:56;;;;;;;9.98;4.25;;;;;;;8.63;100.00;69347.78;5071681;28;20048;-49
2024/02/10 03:53:25;;;;;;;10.25;4.65;;;;;;;8.60;100.00;69347.47;5072400;28;20040;-46
2024/02/10 03:55:56;;;;;;;8.88;4.32;;;;;;;8.59;100.00;69343.13;5072542;28;20041;-49
2024/02/10 03:58:26;;;;;;;7.95;4.38;;;;;;;8.63;100.00;69350.38;5071894;28;20113;-47
2024/02/10 04:00:54;;;;;;;8.43;4.53;;;;;;;8.60;100.00;69347.47;5069058;28;20127;-48
2024/02/10 04:03:28;;;;;;;11.27;5.35;;;;;;;8.60;100.00;69344.25;5070643;28;20045;-49
2024/02/10 04:06:00;;;;;;;10.73;5.28;;;;;;;8.60;100.00;69347.47;5070499;28;20079;-48
2024/02/10 04:08:28;;;;;;;8.23;5.03;;;;;;;8.58;100.00;69344.53;5069254;28;20051;-47
2024/02/10 04:10:57;;;;;;;8.65;4.88;;;;;;;8.58;100.00;69344.53;5067205;28;20040;-48
2024/02/10 04:13:25;;;;;;;9.10;5.65;;;;;;;8.53;100.00;69339.28;5071049;28;20365;-48
2024/02/10 04:15:55;;;;;;;10.50;5.70;;;;;;;8.51;100.00;69336.38;5071221;28;20048;-48
2024/02/10 04:18:27;;;;;;;10.50;5.55;;;;;;;8.53;100.00;69341.88;5069609;28;20116;-48
2024/02/10 04:20:56;;;;;;;9.73;5.03;;;;;;;8.52;100.00;69335.53;5070992;28;20124;-48
2024/02/10 04:23:31;;;;;;;10.30;5.60;;;;;;;8.53;100.00;69336.69;5072004;28;20079;-49
2024/02/10 04:26:00;;;;;;;11.23;5.53;;;;;;;8.51;100.00;69333.78;5071325;28;20484;-51
2024/02/10 04:28:28;;;;;;;8.55;5.55;;;;;;;8.47;100.00;69329.69;5067329;28;20041;-51
2024/02/10 04:30:56;;;;;;;9.00;5.30;;;;;;;8.48;100.00;69332.88;5070433;28;20056;-50
2024/02/10 04:33:25;;;;;;;9.93;5.50;;;;;;;8.47;100.00;69332.31;5072087;28;20141;-48
2024/02/10 04:35:53;;;;;;;9.57;5.18;;;;;;;8.45;100.00;69327.38;5071841;28;20106;-51
2024/02/10 04:38:22;;;;;;;9.80;5.60;;;;;;;8.42;100.00;69323.84;5072183;28;20056;-48
2024/02/10 04:40:52;;;;;;;8.90;4.95;;;;;;;8.38;100.00;69324.41;5071015;28;20480;-50
2024/02/10 04:43:20;;;;;;;11.00;5.65;;;;;;;8.37;100.00;69323.81;5069030;28;20044;-49
2024/02/10 04:45:49;;;;;;;10.57;5.43;;;;;;;8.41;100.00;69327.88;5069152;28;20098;-51
2024/02/10 04:48:19;;;;;;;8.52;5.07;;;;;;;8.35;100.00;69316.28;5071380;28;20102;-48
2024/02/10 04:50:48;;;;;;;9.05;4.90;;;;;;;8.31;100.00;69313.66;5068865;28;20040;-51
2024/02/10 04:53:17;;;;;;;9.38;4.68;;;;;;;8.23;100.00;69302.88;5069850;28;20113;-52
2024/02/10 04:55:45;;;;;;;10.70;4.93;;;;;;;8.19;100.00;69300.81;5069789;28;20045;-49
2024/02/10 04:58:14;;;;;;;9.45;5.15;;;;;;;8.16;100.00;69297.31;5068968;28;20540;-49
2024/02/10 05:00:43;;;;;;;9.68;5.32;;;;;;;8.13;100.00;69289.22;5071844;28;20376;-50
2024/02/10 05:03:11;;;;;;;8.13;4.88;;;;;;;8.08;100.00;69288.59;5075345;28;20044;-47
2024/02/10 05:05:39;;;;;;;11.57;4.80;;;;;;;8.03;100.00;69282.78;5072317;28;20162;-49
2024/02/10 05:08:12;;;;;;;12.23;5.35;;;;;;;7.99;100.00;69272.31;5072438;28;20037;-50
2024/02/10 05:10:41;;;;;;;9.75;4.78;;;;;;;7.98;100.00;69276.38;5073224;28;20037;-49
2024/02/10 05:13:10;;;;;;;9.30;5.05;;;;;;;7.95;100.00;69273.47;5074059;28;20040;-51
2024/02/10 05:15:39;;;;;;;9.40;5.40;;;;;;;7.92;100.00;69273.16;5075463;28;20051;-49
2024/02/10 05:18:08;;;;;;;13.00;5.15;;;;;;;7.91;100.00;69266.78;5075211;28;20067;-52
2024/02/10 05:20:36;;;;;;;10.05;5.60;;;;;;;7.93;100.00;69274.31;5075156;28;20218;-51
2024/02/10 05:23:05;;;;;;;8.85;5.30;;;;;;;7.89;100.00;69266.47;5073257;28;20048;-49
2024/02/10 05:25:36;;;;;;;10.63;5.55;;;;;;;7.90;100.00;69265.03;5070245;28;20048;-52
2024/02/10 05:28:07;;;;;;;14.65;5.57;;;;;;;7.90;100.00;69267.63;5074645;28;20036;-47
2024/02/10 05:30:35;;;;;;;9.70;5.07;;;;;;;7.81;100.00;69260.31;5072069;28;20044;-49
2024/02/10 05:33:05;;;;;;;11.18;5.65;;;;;;;7.79;100.00;69252.81;5071960;28;20048;-50
2024/02/10 05:35:34;;;;;;;9.68;5.65;;;;;;;7.81;100.00;69257.72;5071271;28;20106;-49
2024/02/10 05:38:05;;;;;;;9.52;5.43;;;;;;;7.78;100.00;69251.63;5074060;28;20040;-50
2024/02/10 05:40:33;;;;;;;11.27;5.13;;;;;;;7.75;100.00;69246.13;5069156;28;20052;-50
2024/02/10 05:43:04;;;;;;;11.70;5.75;;;;;;;7.87;100.00;69266.75;5072142;28;20499;-49
2024/02/10 05:45:34;;;;;;;9.85;5.88;;;;;;;7.80;100.00;69259.16;5074762;28;20036;-51
2024/02/10 05:48:05;;;;;;;10.05;5.60;;;;;;;7.76;100.00;69252.50;5073037;28;20504;-51
2024/02/10 05:50:35;;;;;;;9.85;6.05;;;;;;;7.73;100.00;69249.00;5071234;28;20094;-49
2024/02/10 05:53:03;;;;;;;10.20;6.07;;;;;;;7.69;100.00;69241.75;5074287;28;20535;-49
2024/02/10 05:55:32;;;;;;;11.20;6.40;;;;;;;7.75;100.00;69250.75;5069562;28;20040;-47
2024/02/10 05:58:03;;;;;;;11.38;5.78;;;;;;;7.76;100.00;69254.50;5072593;28;20051;-47
2024/02/10 06:00:32;;;;;;;11.93;5.72;;;;;;;7.76;100.00;69251.91;5074543;28;20115;-60
2024/02/10 06:03:04;;;;;;;10.38;5.88;;;;;;;7.75;100.00;69253.91;5074701;28;20119;-60
2024/02/10 06:05:34;;;;;;;11.75;6.18;;;;;;;7.70;100.00;69245.50;5072362;28;20537;-60
2024/02/10 06:08:03;;;;;;;11.00;5.85;;;;;;;7.68;100.00;69243.19;5072890;28;20372;-60
2024/02/10 06:10:31;;;;;;;9.45;5.95;;;;;;;7.69;100.00;69243.75;5071558;28;20123;-60
2024/02/10 06:13:00;;;;;;;10.48;6.05;;;;;;;7.71;100.00;69246.66;5070931;28;20450;-60
2024/02/10 06:15:29;;;;;;;11.52;6.43;;;;;;;7.77;100.00;69253.66;5072059;28;20056;-60
2024/02/10 06:17:59;;;;;;;11.05;6.22;;;;;;;7.73;100.00;69243.81;5071969;28;20098;-60
2024/02/10 06:20:28;;;;;;;10.30;6.18;;;;;;;7.73;100.00;69241.22;5072088;28;20080;-59
2024/02/10 06:22:58;;;;;;;14.20;6.85;;;;;;;7.74;100.00;69246.97;5074120;28;20063;-60
2024/02/10 06:25:30;;;;;;;12.45;6.65;;;;;;;7.83;100.00;69260.06;5074288;28;20499;-60
2024/02/10 06:27:59;;;;;;;11.07;6.28;;;;;;;7.73;100.00;69248.41;5074544;28;20049;-59
2024/02/10 06:30:32;;;;;;;10.60;5.97;;;;;;;7.77;100.00;69253.66;5074092;28;20422;-60
2024/02/10 06:33:03;;;;;;;11.10;6.15;;;;;;;7.74;100.00;69247.56;5073915;28;20054;-60
2024/02/10 06:35:32;;;;;;;9.88;6.35;;;;;;;7.73;100.00;69245.81;5071797;28;20076;-60
2024/02/10 06:38:04;;;;;;;12.75;6.35;;;;;;;7.72;100.00;69247.84;5071982;28;20044;-60
2024/02/10 06:40:37;;;;;;;12.77;6.50;;;;;;;7.75;100.00;69250.75;5073307;28;20094;-60
2024/02/10 06:43:05;;;;;;;13.93;6.32;;;;;;;7.76;100.00;69251.91;5073627;28;20048;-60
2024/02/10 06:45:36;;;;;;;11.30;6.05;;;;;;;7.74;100.00;69252.16;5071809;28;20044;-60
2024/02/10 06:48:09;;;;;;;9.20;5.93;;;;;;;7.72;100.00;69245.22;5072224;28;20514;-59
2024/02/10 06:50:37;;;;;;;10.82;6.07;;;;;;;7.71;100.00;69238.28;5071935;28;20033;-60
2024/02/10 06:53:07;;;;;;;10.32;6.32;;;;;;;7.69;100.00;69241.16;5073120;28;20491;-60
2024/02/10 06:55:36;;;;;;;10.27;6.18;;;;;;;7.68;100.00;69243.19;5070973;28;20049;-60
2024/02/10 06:58:05;;;;;;;9.73;5.50;;;;;;;7.67;100.00;69238.84;5072090;28;20045;-59
2024/02/10 07:00:40;;;;;;;9.82;5.88;;;;;;;7.66;100.00;69242.84;5072691;28;20372;-59
2024/02/10 07:03:08;;;;;;;10.27;6.13;;;;;;;7.64;100.00;69238.50;5071545;28;20052;-60
2024/02/10 07:05:38;;;;;;;10.75;5.65;;;;;;;7.64;100.00;69238.50;5071062;28;20043;-59
2024/02/10 07:08:11;;;;;;;10.27;6.05;;;;;;;7.65;100.00;69239.09;5073552;28;20059;-60
2024/02/10 07:10:39;;;;;;;14.05;6.43;;;;;;;7.67;100.00;69238.84;5073873;28;20068;-60
2024/02/10 07:13:07;;;;;;;11.68;6.28;;;;;;;7.66;100.00;69235.06;5072843;28;20072;-60
2024/02/10 07:15:36;;;;;;;10.32;6.22;;;;;;;7.67;100.00;69242.00;5071388;28;20097;-60
2024/02/10 07:18:06;;;;;;;11.88;6.38;;;;;;;7.70;100.00;69247.50;5071238;28;20485;-60
2024/02/10 07:20:36;;;;;;;11.23;6.22;;;;;;;7.70;100.00;69244.91;5071145;28;20419;-60
2024/02/10 07:23:04;;;;;;;14.18;5.93;;;;;;;7.68;100.00;69240.00;5070987;28;20127;-60
2024/02/10 07:25:37;;;;;;;10.27;6.13;;;;;;;7.81;100.00;69251.94;5071039;28;20067;-60
2024/02/10 07:28:11;;;;;;;10.02;6.05;;;;;;;7.80;100.00;69256.56;5073187;28;20471;-60
2024/02/10 07:30:46;;;;;;;12.38;5.85;;;;;;;7.77;100.00;69253.66;5071635;28;20059;-60
2024/02/10 07:33:17;;;;;;;10.85;6.25;;;;;;;7.83;100.00;69259.47;5071556;28;20049;-60
2024/02/10 07:35:49;;;;;;;11.93;6.50;;;;;;;7.86;100.00;69263.53;5071855;28;20400;-60
2024/02/10 07:38:20;;;;;;;12.00;6.30;;;;;;;7.85;100.00;69264.97;5073210;28;20055;-60
2024/02/10 07:40:50;;;;;;;10.00;5.90;;;;;;;7.83;100.00;69260.06;5071057;28;20072;-59
2024/02/10 07:43:18;;;;;;;12.75;6.28;;;;;;;7.97;100.00;69272.59;5070639;28;20053;-60
2024/02/10 07:45:48;;;;;;;13.02;6.30;;;;;;;7.91;100.00;69269.38;5071066;28;20045;-59
2024/02/10 07:48:18;;;;;;;10.00;5.60;;;;;;;7.89;100.00;69263.88;5071134;28;20072;-59
2024/02/10 07:50:49;;;;;;;9.30;5.78;;;;;;;7.87;100.00;69262.13;5071596;28;20432;-60
2024/02/10 07:53:17;;;;;;;10.90;7.03;;;;;;;7.92;100.00;69272.53;5071312;28;20076;-60
2024/02/10 07:55:46;;;;;;;12.45;6.75;;;;;;;7.94;100.00;69269.69;5069984;28;20048;-59
2024/02/10 07:58:17;;;;;;;11.43;7.07;;;;;;;7.95;100.00;69274.03;5072053;28;20527;-60
2024/02/10 08:00:46;;;;;;;13.52;7.65;;;;;;;7.98;100.00;69276.38;5070458;28;20052;-60
2024/02/10 08:03:15;;;;;;;11.55;6.57;;;;;;;7.99;100.00;69280.13;5070604;28;20056;-60
2024/02/10 08:05:51;;;;;;;11.70;6.80;;;;;;;8.00;100.00;69278.69;5070143;28;20412;-60
2024/02/10 08:08:21;;;;;;;14.15;6.97;;;;;;;8.06;100.00;69283.09;5070223;28;20379;-61
2024/02/10 08:10:49;;;;;;;11.07;6.68;;;;;;;8.09;100.00;69286.59;5069474;28;20044;-59
2024/02/10 08:13:24;;;;;;;12.13;6.60;;;;;;;8.10;100.00;69285.16;5071858;28;20102;-60
2024/02/10 08:15:54;;;;;;;11.57;6.38;;;;;;;8.15;100.00;69290.97;5070250;28;20438;-60
2024/02/10 08:18:23;;;;;;;11.27;6.18;;;;;;;8.21;100.00;69299.97;5071476;28;20098;-60
2024/02/10 08:20:53;;;;;;;9.73;5.53;;;;;;;8.22;100.00;69301.13;5072219;28;20049;-60
2024/02/10 08:23:23;;;;;;;10.82;5.93;;;;;;;8.23;100.00;69300.28;5069688;28;20059;-60
2024/02/10 08:25:54;;;;;;;12.13;6.55;;;;;;;8.26;100.00;69308.97;5069138;28;20048;-61
2024/02/10 08:28:26;;;;;;;10.00;6.22;;;;;;;8.26;100.00;69306.38;5070666;28;20059;-59
2024/02/10 08:30:57;;;;;;;10.75;6.43;;;;;;;8.28;100.00;69308.69;5070282;28;20068;-60
2024/02/10 08:33:33;;;;;;;10.52;6.45;;;;;;;8.33;100.00;69318.56;5070130;28;20055;-60
2024/02/10 08:36:01;;;;;;;10.82;6.63;;;;;;;8.40;100.00;69322.09;5069636;28;20146;-61
2024/02/10 08:38:29;;;;;;;13.27;7.47;;;;;;;8.39;100.00;69320.38;5074166;28;20503;-60
2024/02/10 08:40:58;;;;;;;12.77;8.15;;;;;;;8.40;100.00;69318.94;5072862;28;20378;-60
2024/02/10 08:43:27;;;;;;;14.82;8.60;;;;;;;8.42;100.00;69327.03;5073989;28;20067;-60
2024/02/10 08:45:57;;;;;;;12.43;7.93;;;;;;;8.46;100.00;69328.53;5075686;28;20491;-59
2024/02/10 08:48:25;;;;;;;11.45;7.78;;;;;;;8.48;100.00;69333.47;5073761;28;20059;-61
2024/02/10 08:50:53;;;;;;;13.60;8.55;;;;;;;8.49;100.00;69329.41;5073346;28;20132;-60
2024/02/10 08:53:22;;;;;;;12.15;8.27;;;;;;;8.54;100.00;69337.84;5073500;28;20123;-61
2024/02/10 08:55:50;;;;;;;12.55;8.38;;;;;;;8.52;100.00;69335.53;5072820;28;20438;-60
2024/02/10 08:58:20;;;;;;;11.82;7.78;;;;;;;8.58;100.00;69345.13;5075589;28;20109;-60
2024/02/10 09:00:50;;;;;;;12.57;8.38;;;;;;;8.70;100.00;69355.91;5075755;28;20128;-61
2024/02/10 09:03:18;;;;;;;12.93;8.23;;;;;;;8.70;100.00;69357.94;5073570;28;20098;-60
2024/02/10 09:05:46;;;;;;;13.93;8.65;;;;;;;8.74;100.00;69363.19;5071754;28;20053;-61
2024/02/10 09:08:17;;;;;;;12.65;8.35;;;;;;;8.76;100.00;69357.13;5074798;28;20051;-61
2024/02/10 09:10:48;;;;;;;14.38;8.27;;;;;;;8.85;100.00;69375.44;5072121;28;20091;-60
2024/02/10 09:13:19;;;;;;;14.15;9.02;;;;;;;8.87;100.00;69377.75;5072722;28;20041;-60
2024/02/10 09:15:48;;;;;;;10.57;7.88;;;;;;;8.88;100.00;69378.91;5072623;28;20056;-60
2024/02/10 09:18:16;;;;;;;12.00;8.00;;;;;;;8.93;100.00;69384.16;5073136;28;20041;-60
2024/02/10 09:20:45;;;;;;;13.10;8.07;;;;;;;8.95;100.00;69387.06;5074369;28;20048;-61
2024/02/10 09:23:13;;;;;;;14.57;9.00;;;;;;;9.00;100.00;69392.31;5075540;28;20044;-60
2024/02/10 09:25:42;;;;;;;12.23;8.07;;;;;;;9.01;100.00;69392.91;5075284;28;20044;-61
2024/02/10 09:28:10;;;;;;;11.63;7.25;;;;;;;9.07;100.00;69400.47;5075298;28;20048;-59
2024/02/10 09:30:38;;;;;;;10.75;7.78;;;;;;;9.12;100.00;69405.72;5073065;28;20059;-59
2024/02/10 09:33:19;;;;;;;11.52;7.82;;;;;;;9.16;100.00;69404.59;5071392;28;20048;-59
2024/02/10 09:35:48;;;;;;;11.40;7.05;;;;;;;9.13;100.00;69401.69;5072411;28;20496;-59
2024/02/10 09:38:16;;;;;;;10.85;7.50;;;;;;;9.17;100.00;69411.56;5072052;28;20057;-59
2024/02/10 09:40:45;;;;;;;12.48;7.35;;;;;;;9.23;100.00;69418.56;5071265;28;20499;-59
2024/02/10 09:43:16;;;;;;;12.40;7.43;;;;;;;9.31;100.00;69427.28;5071695;28;20511;-57
2024/02/10 09:45:46;;;;;;;10.48;7.32;;;;;;;9.40;100.00;69437.22;5073362;28;20089;-46
2024/02/10 09:48:19;;;;;;;11.30;8.07;;;;;;;9.44;100.00;69439.84;5073304;28;20044;-49
2024/02/10 09:50:48;;;;;;;10.85;6.63;;;;;;;9.46;100.00;69444.78;5074773;28;20499;-49
2024/02/10 09:53:16;;;;;;;14.68;7.40;;;;;;;9.53;100.00;69452.38;5074617;28;20040;-49
2024/02/10 09:55:45;;;;;;;11.13;7.57;;;;;;;9.56;100.00;69453.25;5073315;28;20045;-49
2024/02/10 09:58:14;;;;;;;10.73;6.72;;;;;;;9.60;100.00;69455.31;5071134;28;20553;-49
2024/02/10 10:00:43;;;;;;;11.93;7.38;;;;;;;9.69;100.00;69472.47;5071527;28;20075;-47
2024/02/10 10:03:14;;;;;;;10.95;6.78;;;;;;;9.70;100.00;69465.81;5071417;28;20037;-49
2024/02/10 10:05:45;;;;;;;11.45;6.72;;;;;;;9.77;100.00;69476.59;5071707;28;20055;-47
2024/02/10 10:08:14;;;;;;;10.23;6.60;;;;;;;9.82;100.00;69474.59;5073428;28;20036;-47
2024/02/10 10:10:43;;;;;;;11.45;6.57;;;;;;;9.91;100.00;69492.91;5070188;28;20053;-50
2024/02/10 10:13:12;;;;;;;10.52;6.30;;;;;;;10.05;100.00;69510.66;5071336;28;20052;-50
2024/02/10 10:15:41;;;;;;;10.00;6.55;;;;;;;10.07;100.00;69513.00;5073802;28;20040;-48
2024/02/10 10:18:17;;;;;;;9.95;6.53;;;;;;;10.15;100.00;69524.97;5074399;28;20139;-48
2024/02/10 10:20:47;;;;;;;8.98;6.20;;;;;;;10.30;100.00;69537.22;5074176;28;20068;-49
2024/02/10 10:23:16;;;;;;;9.98;5.88;;;;;;;10.38;100.00;69543.41;5074149;28;20047;-49
2024/02/10 10:25:46;;;;;;;9.65;6.13;;;;;;;10.42;100.00;69550.09;5072689;28;20040;-51
2024/02/10 10:28:17;;;;;;;11.32;6.40;;;;;;;10.49;100.00;69566.66;5073874;28;20075;-49
2024/02/10 10:30:48;;;;;;;9.02;5.80;;;;;;;10.62;100.00;69573.44;5074002;28;20121;-49
2024/02/10 10:33:20;;;;;;;11.25;6.35;;;;;;;10.68;100.00;69579.88;5073797;28;20049;-49
2024/02/10 10:35:54;;;;;;;9.23;5.88;;;;;;;10.72;100.00;69586.56;5073836;28;20496;-48
2024/02/10 10:38:23;;;;;;;10.40;5.47;;;;;;;10.70;100.00;69584.22;5073799;28;20135;-48
2024/02/10 10:40:52;;;;;;;9.13;5.82;;;;;;;10.83;100.00;69591.56;5073700;28;20447;-59
2024/02/10 10:43:23;;;;;;;9.50;5.50;;;;;;;10.88;100.00;69599.41;5073575;28;20549;-60
2024/02/10 10:45:52;;;;;;;9.20;5.90;;;;;;;10.91;100.00;69605.56;5073624;28;20385;-60
2024/02/10 10:48:20;;;;;;;10.07;5.45;;;;;;;10.97;100.00;69612.53;5070730;28;20194;-60
2024/02/10 10:50:55;;;;;;;9.63;5.32;;;;;;;11.10;100.00;69630.34;5070892;28;20400;-60
2024/02/10 10:53:27;;;;;;;10.73;5.28;;;;;;;11.14;100.00;69631.81;5073530;28;20499;-60
2024/02/10 10:55:59;;;;;;;9.90;5.55;;;;;;;11.20;100.00;69641.41;5073614;28;20048;-60
2024/02/10 10:58:33;;;;;;;11.20;5.63;;;;;;;11.27;100.00;69646.97;5071460;28;20044;-59
2024/02/10 11:01:03;;;;;;;10.43;5.43;;;;;;;11.29;100.00;69651.38;5070309;28;20127;-48
2024/02/10 11:03:31;;;;;;;9.05;5.35;;;;;;;11.39;100.00;69663.03;5072658;28;20097;-50
2024/02/10 11:06:10;;;;;;;8.10;5.15;;;;;;;11.37;100.00;69658.09;5071293;28;20502;-47
2024/02/10 11:08:41;;;;;;;8.77;4.90;;;;;;;11.37;100.00;69654.88;5070181;28;20124;-48
2024/02/10 11:11:13;;;;;;;9.45;5.07;;;;;;;11.45;100.00;69664.81;5068796;28;20152;-49
2024/02/10 11:13:42;;;;;;;9.20;5.00;;;;;;;11.55;100.00;69677.94;5069192;28;20105;-49
2024/02/10 11:16:12;;;;;;;8.55;5.07;;;;;;;11.66;100.00;69696.59;5068596;28;20040;-47
2024/02/10 11:18:43;;;;;;;7.38;4.32;;;;;;;11.71;100.00;69698.66;5071641;28;20055;-52
2024/02/10 11:21:18;;;;;;;8.80;5.05;;;;;;;11.77;100.00;69695.78;5069397;28;20052;-50
2024/02/10 11:23:59;;;;;;;8.75;4.63;;;;;;;11.74;100.00;69699.53;5070948;28;20048;-51
2024/02/10 11:26:31;;;;;;;10.15;5.00;;;;;;;11.74;100.00;69702.16;5069682;28;20514;-48
2024/02/10 11:29:01;;;;;;;7.03;4.30;;;;;;;11.71;100.00;69696.63;5068867;28;20048;-49
2024/02/10 11:31:29;;;;;;;8.63;5.10;;;;;;;11.69;100.00;69688.47;5073031;28;20102;-49
2024/02/10 11:34:04;;;;;;;10.18;4.72;;;;;;;11.77;100.00;69708.28;5071158;28;20127;-51
2024/02/10 11:36:36;;;;;;;8.35;4.80;;;;;;;11.73;100.00;69701.00;5069308;28;20036;-49
2024/02/10 11:39:08;;;;;;;9.43;5.22;;;;;;;11.76;100.00;69704.50;5069254;28;20075;-48
2024/02/10 11:41:38;;;;;;;7.40;4.82;;;;;;;11.84;100.00;69711.22;5068653;28;20049;-52